Wednesday, December 19, 2018, 12:55 AM EST
Back to Local

KEEN, Keene, Dillant-hopkins Airport

Location: Keene, NH, United States Lat: 42.9
Local Time: 12:55 AM EST ( 5:55 GMT) Lon: -72.267
Time Zone: US/Eastern Elev: 488 ft

Show me the last for .
Show Decoded

2018-12-18 23:56 METAR KEEN 190456Z AUTO 32003KT 10SM CLR M09/M13 A3007 RMK AO2 SLP203 T10891128
                 410171094 FZRANO $ =
2018-12-18 22:56 METAR KEEN 190356Z AUTO 34006KT 10SM CLR M08/M12 A3008 RMK AO2 SLP206 T10831122
                 FZRANO $ =
2018-12-18 21:56 METAR KEEN 190256Z AUTO 00000KT 10SM CLR M08/M12 A3008 RMK AO2 SLP208 T10831122
                 51014 FZRANO $ =
2018-12-18 20:56 METAR KEEN 190156Z AUTO 34003KT 10SM CLR M09/M13 A3007 RMK AO2 SLP204 T10891128
                 FZRANO $ =
2018-12-18 19:56 METAR KEEN 190056Z AUTO 32004KT 10SM CLR M07/M13 A3007 RMK AO2 SLP202 T10721128
                 FZRANO $ =
2018-12-18 18:56 METAR KEEN 182356Z AUTO 29004KT 10SM CLR M06/M12 A3004 RMK AO2 SLP193 T10611122
                 11022 21061 53023 FZRANO $ =
2018-12-18 17:56 METAR KEEN 182256Z AUTO 27005G15KT 10SM CLR M05/M12 A3002 RMK AO2 SLP186
                 T10501117 FZRANO $ =
2018-12-18 15:56 METAR KEEN 182056Z AUTO 32008KT 10SM CLR M03/M12 A2997 RMK AO2 SLP171 T10331117
                 51022 FZRANO $ =
2018-12-18 14:56 METAR KEEN 181956Z AUTO 35013KT 10SM BKN044 M02/M11 A2995 RMK AO2 SLP163
                 T10221111 FZRANO $ =
2018-12-18 13:56 METAR KEEN 181856Z AUTO 33014G24KT 10SM FEW043 M02/M11 A2993 RMK AO2 PK WND
                 35027/1836 SLP155 T10221111 FZRANO $ =
2018-12-18 12:56 METAR KEEN 181756Z AUTO 34014G22KT 10SM CLR M03/M11 A2991 RMK AO2 PK WND
                 35029/1723 SLP148 60000 T10331111 11033 21067 55004 FZRANO $ =
2018-12-18 11:56 METAR KEEN 181656Z AUTO 34021G27KT 10SM CLR M04/M12 A2990 RMK AO2 PK WND
                 35027/1656 SLP148 T10391117 FZRANO $ =
2018-12-18 10:56 METAR KEEN 181556Z AUTO 32016G22KT 10SM SCT039 M04/M12 A2991 RMK AO2 PK WND
                 33028/1512 SLP150 T10391122 FZRANO $ =
2018-12-18 09:56 METAR KEEN 181456Z AUTO 32016G25KT 10SM SCT039 M04/M13 A2992 RMK AO2 SLP153
                 60000 T10441128 51031 FZRANO $ =
2018-12-18 08:56 METAR KEEN 181356Z AUTO 34017G22KT 10SM BKN041 M06/M13 A2990 RMK AO2 SLP147
                 T10561128 FZRANO $ =
2018-12-18 07:56 METAR KEEN 181256Z AUTO 32015G22KT 10SM CLR M07/M13 A2987 RMK AO2 PK WND
                 31030/1200 SNB03E12 SLP136 P0000 T10671133 FZRANO $ =
2018-12-18 06:56 METAR KEEN 181156Z AUTO 31013G20KT 6SM HZ BKN043 M07/M13 A2983 RMK AO2 SLP122
                 60000 7//// T10671133 11033 21067 51027 FZRANO $ =
2018-12-18 05:56 METAR KEEN 181056Z AUTO 31018G25KT 10SM OVC043 M06/M13 A2981 RMK AO2 SLP117
                 T10611133 FZRANO $ =
2018-12-18 04:56 METAR KEEN 180956Z AUTO 34013G25KT 10SM OVC043 M06/M13 A2978 RMK AO2 PK WND
                 33029/0944 SNB37E47 SLP105 P0000 T10611133 FZRANO $ =
2018-12-18 03:56 METAR KEEN 180856Z AUTO 33017G26KT 290V010 10SM OVC045 M06/M13 A2975 RMK AO2 PK
                 WND 32028/0814 SLP094 60000 T10611133 51034 FZRANO $ =
2018-12-18 02:56 METAR KEEN 180756Z AUTO 34020G32KT 10SM CLR M06/M13 A2973 RMK AO2 PK WND
                 32032/0754 SNB06E16 SLP089 P0000 T10611133 FZRANO $ =
2018-12-18 01:56 METAR KEEN 180656Z AUTO 34018G25KT 10SM BKN033 M04/M10 A2969 RMK AO2 SNE05
                 SLP074 P0000 T10441100 FZRANO $ =
2018-12-18 00:56 METAR KEEN 180556Z AUTO 33006KT 9SM -SN FEW037 SCT043 BKN050 M03/M08 A2964 RMK
                 AO2 PK WND 34026/0524 SLP058 P0000 60000 T10331078 10022 21033 53022 FZRANO $ =

Support USWX by starting your Amazon purchase here.